sensor_id;sensor_type;location;lat;lon;timestamp;P1;durP1;ratioP1;P2;durP2;ratioP2
73980;SDS011;62348;51.412;5.436;2022-11-02T00:00:38;9.30;;;1.92;;
73980;SDS011;62348;51.412;5.436;2022-11-02T00:03:05;9.63;;;2.47;;
73980;SDS011;62348;51.412;5.436;2022-11-02T00:05:30;6.90;;;1.98;;
73980;SDS011;62348;51.412;5.436;2022-11-02T00:07:56;14.38;;;2.85;;
73980;SDS011;62348;51.412;5.436;2022-11-02T00:10:22;8.68;;;2.42;;
73980;SDS011;62348;51.412;5.436;2022-11-02T00:12:48;10.68;;;2.45;;
73980;SDS011;62348;51.412;5.436;2022-11-02T00:15:14;11.68;;;2.25;;
73980;SDS011;62348;51.412;5.436;2022-11-02T00:17:40;9.07;;;2.17;;
73980;SDS011;62348;51.412;5.436;2022-11-02T00:20:09;8.77;;;1.98;;
73980;SDS011;62348;51.412;5.436;2022-11-02T00:22:36;11.98;;;1.85;;
73980;SDS011;62348;51.412;5.436;2022-11-02T00:25:02;8.43;;;1.98;;
73980;SDS011;62348;51.412;5.436;2022-11-02T00:27:29;5.28;;;1.80;;
73980;SDS011;62348;51.412;5.436;2022-11-02T00:29:55;10.45;;;1.90;;
73980;SDS011;62348;51.412;5.436;2022-11-02T00:32:21;12.50;;;2.53;;
73980;SDS011;62348;51.412;5.436;2022-11-02T00:34:47;9.15;;;2.10;;
73980;SDS011;62348;51.412;5.436;2022-11-02T00:37:12;7.63;;;2.35;;
73980;SDS011;62348;51.412;5.436;2022-11-02T00:39:37;13.20;;;2.00;;
73980;SDS011;62348;51.412;5.436;2022-11-02T00:42:03;11.13;;;2.20;;
73980;SDS011;62348;51.412;5.436;2022-11-02T00:44:28;10.45;;;2.17;;
73980;SDS011;62348;51.412;5.436;2022-11-02T00:46:54;11.57;;;2.75;;
73980;SDS011;62348;51.412;5.436;2022-11-02T00:49:19;11.70;;;2.35;;
73980;SDS011;62348;51.412;5.436;2022-11-02T00:51:45;16.45;;;2.60;;
73980;SDS011;62348;51.412;5.436;2022-11-02T00:54:11;11.25;;;3.45;;
73980;SDS011;62348;51.412;5.436;2022-11-02T00:56:36;6.85;;;2.00;;
73980;SDS011;62348;51.412;5.436;2022-11-02T00:59:03;8.73;;;2.15;;
73980;SDS011;62348;51.412;5.436;2022-11-02T01:01:29;8.52;;;2.50;;
73980;SDS011;62348;51.412;5.436;2022-11-02T01:03:55;7.88;;;1.80;;
73980;SDS011;62348;51.412;5.436;2022-11-02T01:06:21;10.23;;;2.47;;
73980;SDS011;62348;51.412;5.436;2022-11-02T01:08:47;11.68;;;2.78;;
73980;SDS011;62348;51.412;5.436;2022-11-02T01:11:14;7.70;;;2.08;;
73980;SDS011;62348;51.412;5.436;2022-11-02T01:13:41;8.68;;;1.90;;
73980;SDS011;62348;51.412;5.436;2022-11-02T01:16:07;5.95;;;1.70;;
73980;SDS011;62348;51.412;5.436;2022-11-02T01:18:33;7.68;;;1.90;;
73980;SDS011;62348;51.412;5.436;2022-11-02T01:20:59;9.10;;;2.05;;
73980;SDS011;62348;51.412;5.436;2022-11-02T01:23:24;10.13;;;2.13;;
73980;SDS011;62348;51.412;5.436;2022-11-02T01:25:50;5.00;;;1.60;;
73980;SDS011;62348;51.412;5.436;2022-11-02T01:28:16;10.68;;;2.00;;
73980;SDS011;62348;51.412;5.436;2022-11-02T01:30:41;11.95;;;1.73;;
73980;SDS011;62348;51.412;5.436;2022-11-02T01:33:07;8.93;;;2.00;;
73980;SDS011;62348;51.412;5.436;2022-11-02T01:35:32;11.20;;;1.92;;
73980;SDS011;62348;51.412;5.436;2022-11-02T01:38:00;9.45;;;1.65;;
73980;SDS011;62348;51.412;5.436;2022-11-02T01:40:25;8.40;;;2.03;;
73980;SDS011;62348;51.412;5.436;2022-11-02T01:42:50;10.35;;;1.92;;
73980;SDS011;62348;51.412;5.436;2022-11-02T01:45:16;8.00;;;1.65;;
73980;SDS011;62348;51.412;5.436;2022-11-02T01:47:42;9.68;;;1.45;;
73980;SDS011;62348;51.412;5.436;2022-11-02T01:50:12;7.15;;;2.15;;
73980;SDS011;62348;51.412;5.436;2022-11-02T01:52:42;8.05;;;1.60;;
73980;SDS011;62348;51.412;5.436;2022-11-02T01:57:36;6.47;;;1.73;;
73980;SDS011;62348;51.412;5.436;2022-11-02T02:00:05;6.47;;;1.42;;
73980;SDS011;62348;51.412;5.436;2022-11-02T02:02:34;5.70;;;1.85;;
73980;SDS011;62348;51.412;5.436;2022-11-02T02:05:05;4.60;;;1.50;;
73980;SDS011;62348;51.412;5.436;2022-11-02T02:07:33;6.93;;;2.08;;
73980;SDS011;62348;51.412;5.436;2022-11-02T02:10:03;7.40;;;1.60;;
73980;SDS011;62348;51.412;5.436;2022-11-02T02:12:29;9.32;;;2.47;;
73980;SDS011;62348;51.412;5.436;2022-11-02T02:14:56;9.30;;;1.95;;
73980;SDS011;62348;51.412;5.436;2022-11-02T02:31:47;8.93;;;2.60;;
73980;SDS011;62348;51.412;5.436;2022-11-02T02:34:45;10.30;;;2.25;;
73980;SDS011;62348;51.412;5.436;2022-11-02T02:40:18;10.98;;;1.92;;
73980;SDS011;62348;51.412;5.436;2022-11-02T02:42:51;7.43;;;1.70;;
73980;SDS011;62348;51.412;5.436;2022-11-02T02:45:22;7.78;;;2.17;;
73980;SDS011;62348;51.412;5.436;2022-11-02T02:48:02;12.20;;;2.85;;
73980;SDS011;62348;51.412;5.436;2022-11-02T02:50:52;8.27;;;2.03;;
73980;SDS011;62348;51.412;5.436;2022-11-02T02:53:27;11.98;;;2.17;;
73980;SDS011;62348;51.412;5.436;2022-11-02T02:55:55;12.45;;;2.90;;
73980;SDS011;62348;51.412;5.436;2022-11-02T02:58:25;13.77;;;2.13;;
73980;SDS011;62348;51.412;5.436;2022-11-02T03:00:56;9.38;;;1.85;;
73980;SDS011;62348;51.412;5.436;2022-11-02T03:03:24;12.40;;;2.28;;
73980;SDS011;62348;51.412;5.436;2022-11-02T03:08:55;13.52;;;2.28;;
73980;SDS011;62348;51.412;5.436;2022-11-02T03:11:32;15.93;;;2.40;;
73980;SDS011;62348;51.412;5.436;2022-11-02T03:14:05;12.02;;;2.45;;
73980;SDS011;62348;51.412;5.436;2022-11-02T03:17:14;10.23;;;2.22;;
73980;SDS011;62348;51.412;5.436;2022-11-02T03:20:03;14.70;;;2.85;;
73980;SDS011;62348;51.412;5.436;2022-11-02T03:25:38;13.00;;;2.38;;
73980;SDS011;62348;51.412;5.436;2022-11-02T03:34:08;10.45;;;2.30;;
73980;SDS011;62348;51.412;5.436;2022-11-02T03:36:38;10.05;;;2.20;;
73980;SDS011;62348;51.412;5.436;2022-11-02T03:39:10;14.20;;;2.40;;
73980;SDS011;62348;51.412;5.436;2022-11-02T03:41:38;11.82;;;2.17;;
73980;SDS011;62348;51.412;5.436;2022-11-02T03:44:08;9.63;;;2.20;;
73980;SDS011;62348;51.412;5.436;2022-11-02T03:46:39;10.85;;;2.80;;
73980;SDS011;62348;51.412;5.436;2022-11-02T03:49:08;10.32;;;2.67;;
73980;SDS011;62348;51.412;5.436;2022-11-02T03:51:39;14.23;;;2.65;;
73980;SDS011;62348;51.412;5.436;2022-11-02T03:54:09;14.13;;;3.50;;
73980;SDS011;62348;51.412;5.436;2022-11-02T03:56:45;14.23;;;2.45;;
73980;SDS011;62348;51.412;5.436;2022-11-02T03:59:14;10.88;;;2.15;;
73980;SDS011;62348;51.412;5.436;2022-11-02T04:01:41;14.10;;;3.58;;
73980;SDS011;62348;51.412;5.436;2022-11-02T04:04:09;9.93;;;2.50;;
73980;SDS011;62348;51.412;5.436;2022-11-02T04:06:35;14.68;;;3.65;;
73980;SDS011;62348;51.412;5.436;2022-11-02T04:09:01;13.23;;;3.00;;
73980;SDS011;62348;51.412;5.436;2022-11-02T04:11:28;10.00;;;2.45;;
73980;SDS011;62348;51.412;5.436;2022-11-02T04:14:13;15.50;;;2.63;;
73980;SDS011;62348;51.412;5.436;2022-11-02T04:16:59;9.23;;;2.10;;
73980;SDS011;62348;51.412;5.436;2022-11-02T04:19:43;9.93;;;2.53;;
73980;SDS011;62348;51.412;5.436;2022-11-02T04:22:08;15.23;;;2.80;;
73980;SDS011;62348;51.412;5.436;2022-11-02T04:24:52;11.60;;;2.70;;
73980;SDS011;62348;51.412;5.436;2022-11-02T04:27:36;19.73;;;3.67;;
73980;SDS011;62348;51.412;5.436;2022-11-02T04:30:01;13.50;;;3.42;;
73980;SDS011;62348;51.412;5.436;2022-11-02T04:32:27;13.20;;;2.25;;
73980;SDS011;62348;51.412;5.436;2022-11-02T04:35:11;14.98;;;3.30;;
73980;SDS011;62348;51.412;5.436;2022-11-02T04:37:40;17.10;;;2.65;;
73980;SDS011;62348;51.412;5.436;2022-11-02T04:40:25;11.77;;;2.85;;
73980;SDS011;62348;51.412;5.436;2022-11-02T04:42:50;11.30;;;3.15;;
73980;SDS011;62348;51.412;5.436;2022-11-02T04:45:15;9.93;;;2.20;;
73980;SDS011;62348;51.412;5.436;2022-11-02T04:47:41;12.45;;;2.72;;
73980;SDS011;62348;51.412;5.436;2022-11-02T04:50:06;18.17;;;3.08;;
73980;SDS011;62348;51.412;5.436;2022-11-02T04:52:32;9.57;;;2.80;;
73980;SDS011;62348;51.412;5.436;2022-11-02T04:54:58;13.40;;;2.85;;
73980;SDS011;62348;51.412;5.436;2022-11-02T04:57:23;14.90;;;2.90;;
73980;SDS011;62348;51.412;5.436;2022-11-02T04:59:49;11.98;;;2.60;;
73980;SDS011;62348;51.412;5.436;2022-11-02T05:02:14;10.85;;;2.17;;
73980;SDS011;62348;51.412;5.436;2022-11-02T05:04:40;14.77;;;2.60;;
73980;SDS011;62348;51.412;5.436;2022-11-02T05:07:05;10.43;;;2.63;;
73980;SDS011;62348;51.412;5.436;2022-11-02T05:09:31;15.43;;;3.03;;
73980;SDS011;62348;51.412;5.436;2022-11-02T05:11:57;10.65;;;2.78;;
73980;SDS011;62348;51.412;5.436;2022-11-02T05:14:22;14.07;;;3.03;;
73980;SDS011;62348;51.412;5.436;2022-11-02T05:16:48;18.35;;;3.08;;
73980;SDS011;62348;51.412;5.436;2022-11-02T05:19:13;13.40;;;2.63;;
73980;SDS011;62348;51.412;5.436;2022-11-02T05:21:38;11.98;;;2.50;;
73980;SDS011;62348;51.412;5.436;2022-11-02T05:24:04;13.23;;;3.08;;
73980;SDS011;62348;51.412;5.436;2022-11-02T05:26:30;12.55;;;2.55;;
73980;SDS011;62348;51.412;5.436;2022-11-02T05:28:55;18.52;;;2.90;;
73980;SDS011;62348;51.412;5.436;2022-11-02T05:31:20;11.77;;;2.20;;
73980;SDS011;62348;51.412;5.436;2022-11-02T05:33:46;14.45;;;3.10;;
73980;SDS011;62348;51.412;5.436;2022-11-02T05:36:11;7.72;;;2.10;;
73980;SDS011;62348;51.412;5.436;2022-11-02T05:38:37;10.90;;;3.25;;
73980;SDS011;62348;51.412;5.436;2022-11-02T05:41:02;20.27;;;3.33;;
73980;SDS011;62348;51.412;5.436;2022-11-02T05:43:27;14.45;;;3.53;;
73980;SDS011;62348;51.412;5.436;2022-11-02T05:45:57;12.90;;;2.67;;
73980;SDS011;62348;51.412;5.436;2022-11-02T05:48:24;7.20;;;2.75;;
73980;SDS011;62348;51.412;5.436;2022-11-02T05:50:54;11.75;;;2.38;;
73980;SDS011;62348;51.412;5.436;2022-11-02T05:53:21;13.82;;;2.42;;
73980;SDS011;62348;51.412;5.436;2022-11-02T05:55:47;13.05;;;2.53;;
73980;SDS011;62348;51.412;5.436;2022-11-02T05:58:12;16.75;;;2.53;;
73980;SDS011;62348;51.412;5.436;2022-11-02T06:00:38;8.55;;;2.30;;
73980;SDS011;62348;51.412;5.436;2022-11-02T06:03:04;12.02;;;2.50;;
73980;SDS011;62348;51.412;5.436;2022-11-02T06:05:31;19.83;;;3.25;;
73980;SDS011;62348;51.412;5.436;2022-11-02T06:07:58;12.63;;;2.53;;
73980;SDS011;62348;51.412;5.436;2022-11-02T06:10:26;16.08;;;3.53;;
73980;SDS011;62348;51.412;5.436;2022-11-02T06:12:55;11.32;;;2.20;;
73980;SDS011;62348;51.412;5.436;2022-11-02T06:15:25;17.98;;;2.40;;
73980;SDS011;62348;51.412;5.436;2022-11-02T06:17:51;15.90;;;2.72;;
73980;SDS011;62348;51.412;5.436;2022-11-02T06:20:16;8.70;;;2.38;;
73980;SDS011;62348;51.412;5.436;2022-11-02T06:22:42;15.48;;;2.95;;
73980;SDS011;62348;51.412;5.436;2022-11-02T06:25:08;15.18;;;3.75;;
73980;SDS011;62348;51.412;5.436;2022-11-02T06:27:34;24.90;;;3.25;;
73980;SDS011;62348;51.412;5.436;2022-11-02T06:29:59;18.30;;;3.13;;
73980;SDS011;62348;51.412;5.436;2022-11-02T06:32:25;13.32;;;2.58;;
73980;SDS011;62348;51.412;5.436;2022-11-02T06:34:51;10.30;;;2.80;;
73980;SDS011;62348;51.412;5.436;2022-11-02T06:37:16;11.55;;;2.42;;
73980;SDS011;62348;51.412;5.436;2022-11-02T06:39:41;15.00;;;3.05;;
73980;SDS011;62348;51.412;5.436;2022-11-02T06:42:07;13.75;;;2.58;;
73980;SDS011;62348;51.412;5.436;2022-11-02T06:44:32;16.20;;;2.88;;
73980;SDS011;62348;51.412;5.436;2022-11-02T06:46:58;19.95;;;2.80;;
73980;SDS011;62348;51.412;5.436;2022-11-02T06:49:23;13.57;;;3.25;;
73980;SDS011;62348;51.412;5.436;2022-11-02T06:51:51;12.07;;;2.50;;
73980;SDS011;62348;51.412;5.436;2022-11-02T06:54:17;13.70;;;3.08;;
73980;SDS011;62348;51.412;5.436;2022-11-02T06:56:43;5.78;;;1.90;;
73980;SDS011;62348;51.412;5.436;2022-11-02T06:59:08;10.93;;;2.45;;
73980;SDS011;62348;51.412;5.436;2022-11-02T07:01:34;10.40;;;2.33;;
73980;SDS011;62348;51.412;5.436;2022-11-02T07:04:02;13.32;;;2.35;;
73980;SDS011;62348;51.412;5.436;2022-11-02T07:06:28;10.70;;;2.47;;
73980;SDS011;62348;51.412;5.436;2022-11-02T07:08:53;13.80;;;2.35;;
73980;SDS011;62348;51.412;5.436;2022-11-02T07:11:19;13.48;;;2.83;;
73980;SDS011;62348;51.412;5.436;2022-11-02T07:13:45;10.77;;;2.25;;
73980;SDS011;62348;51.412;5.436;2022-11-02T07:16:10;10.75;;;2.45;;
73980;SDS011;62348;51.412;5.436;2022-11-02T07:18:36;11.95;;;2.53;;
73980;SDS011;62348;51.412;5.436;2022-11-02T07:21:01;14.13;;;2.60;;
73980;SDS011;62348;51.412;5.436;2022-11-02T07:23:27;11.82;;;2.55;;
73980;SDS011;62348;51.412;5.436;2022-11-02T07:25:53;13.20;;;2.40;;
73980;SDS011;62348;51.412;5.436;2022-11-02T07:28:18;15.38;;;2.50;;
73980;SDS011;62348;51.412;5.436;2022-11-02T07:30:44;15.45;;;2.60;;
73980;SDS011;62348;51.412;5.436;2022-11-02T07:33:10;13.07;;;2.50;;
73980;SDS011;62348;51.412;5.436;2022-11-02T07:35:36;15.18;;;3.28;;
73980;SDS011;62348;51.412;5.436;2022-11-02T07:38:05;13.48;;;2.65;;
73980;SDS011;62348;51.412;5.436;2022-11-02T07:40:32;17.80;;;3.03;;
73980;SDS011;62348;51.412;5.436;2022-11-02T07:42:59;14.35;;;2.28;;
73980;SDS011;62348;51.412;5.436;2022-11-02T07:45:25;12.23;;;2.70;;
73980;SDS011;62348;51.412;5.436;2022-11-02T07:47:53;17.42;;;3.40;;
73980;SDS011;62348;51.412;5.436;2022-11-02T07:50:20;13.20;;;2.83;;
73980;SDS011;62348;51.412;5.436;2022-11-02T07:52:50;17.30;;;3.17;;
73980;SDS011;62348;51.412;5.436;2022-11-02T07:55:18;14.93;;;2.50;;
73980;SDS011;62348;51.412;5.436;2022-11-02T07:57:51;13.43;;;3.13;;
73980;SDS011;62348;51.412;5.436;2022-11-02T08:00:18;13.52;;;2.92;;
73980;SDS011;62348;51.412;5.436;2022-11-02T08:02:44;12.68;;;2.58;;
73980;SDS011;62348;51.412;5.436;2022-11-02T08:05:09;13.80;;;3.22;;
73980;SDS011;62348;51.412;5.436;2022-11-02T08:07:35;14.38;;;2.55;;
73980;SDS011;62348;51.412;5.436;2022-11-02T08:10:00;10.10;;;2.60;;
73980;SDS011;62348;51.412;5.436;2022-11-02T08:12:26;13.57;;;2.75;;
73980;SDS011;62348;51.412;5.436;2022-11-02T08:14:51;15.43;;;2.80;;
73980;SDS011;62348;51.412;5.436;2022-11-02T08:17:16;9.68;;;2.53;;
73980;SDS011;62348;51.412;5.436;2022-11-02T08:19:42;16.95;;;3.00;;
73980;SDS011;62348;51.412;5.436;2022-11-02T08:22:07;22.98;;;3.70;;
73980;SDS011;62348;51.412;5.436;2022-11-02T08:24:33;15.88;;;4.18;;
73980;SDS011;62348;51.412;5.436;2022-11-02T08:26:58;11.35;;;3.10;;
73980;SDS011;62348;51.412;5.436;2022-11-02T08:29:23;10.23;;;2.58;;
73980;SDS011;62348;51.412;5.436;2022-11-02T08:31:49;14.18;;;2.70;;
73980;SDS011;62348;51.412;5.436;2022-11-02T08:34:14;14.93;;;2.75;;
73980;SDS011;62348;51.412;5.436;2022-11-02T08:36:39;12.63;;;3.47;;
73980;SDS011;62348;51.412;5.436;2022-11-02T08:39:05;16.65;;;3.10;;
73980;SDS011;62348;51.412;5.436;2022-11-02T08:41:30;15.70;;;3.42;;
73980;SDS011;62348;51.412;5.436;2022-11-02T08:43:56;11.32;;;3.03;;
73980;SDS011;62348;51.412;5.436;2022-11-02T08:46:21;14.00;;;2.85;;
73980;SDS011;62348;51.412;5.436;2022-11-02T08:48:47;14.10;;;3.72;;
73980;SDS011;62348;51.412;5.436;2022-11-02T08:51:12;12.65;;;3.28;;
73980;SDS011;62348;51.412;5.436;2022-11-02T08:53:38;14.25;;;3.53;;
73980;SDS011;62348;51.412;5.436;2022-11-02T08:56:03;13.80;;;2.88;;
73980;SDS011;62348;51.412;5.436;2022-11-02T08:58:29;11.73;;;3.45;;
73980;SDS011;62348;51.412;5.436;2022-11-02T09:00:54;10.65;;;2.83;;
73980;SDS011;62348;51.412;5.436;2022-11-02T09:03:20;14.38;;;3.17;;
73980;SDS011;62348;51.412;5.436;2022-11-02T09:05:48;13.57;;;2.92;;
73980;SDS011;62348;51.412;5.436;2022-11-02T09:08:18;10.20;;;2.65;;
73980;SDS011;62348;51.412;5.436;2022-11-02T09:10:47;11.90;;;3.15;;
73980;SDS011;62348;51.412;5.436;2022-11-02T09:13:14;15.65;;;3.03;;
73980;SDS011;62348;51.412;5.436;2022-11-02T09:15:44;15.20;;;2.85;;
73980;SDS011;62348;51.412;5.436;2022-11-02T09:18:13;11.15;;;2.97;;
73980;SDS011;62348;51.412;5.436;2022-11-02T09:20:38;12.48;;;3.00;;
73980;SDS011;62348;51.412;5.436;2022-11-02T09:23:04;13.70;;;2.78;;
73980;SDS011;62348;51.412;5.436;2022-11-02T09:25:29;14.50;;;3.70;;
73980;SDS011;62348;51.412;5.436;2022-11-02T09:27:55;15.60;;;3.13;;
73980;SDS011;62348;51.412;5.436;2022-11-02T09:30:21;16.00;;;3.22;;
73980;SDS011;62348;51.412;5.436;2022-11-02T09:32:57;14.82;;;3.22;;
73980;SDS011;62348;51.412;5.436;2022-11-02T09:35:25;18.88;;;3.53;;
73980;SDS011;62348;51.412;5.436;2022-11-02T09:37:51;21.20;;;3.75;;
73980;SDS011;62348;51.412;5.436;2022-11-02T09:40:20;16.35;;;3.33;;
73980;SDS011;62348;51.412;5.436;2022-11-02T09:45:47;16.55;;;3.63;;
73980;SDS011;62348;51.412;5.436;2022-11-02T09:51:31;14.83;;;3.23;;
73980;SDS011;62348;51.412;5.436;2022-11-02T09:54:10;14.68;;;3.33;;
73980;SDS011;62348;51.412;5.436;2022-11-02T09:56:42;14.77;;;3.33;;
73980;SDS011;62348;51.412;5.436;2022-11-02T09:59:12;16.35;;;2.80;;
73980;SDS011;62348;51.412;5.436;2022-11-02T10:04:45;11.25;;;2.85;;
73980;SDS011;62348;51.412;5.436;2022-11-02T10:10:14;15.65;;;3.20;;
73980;SDS011;62348;51.412;5.436;2022-11-02T10:13:06;14.97;;;3.93;;
73980;SDS011;62348;51.412;5.436;2022-11-02T10:15:51;11.82;;;3.00;;
73980;SDS011;62348;51.412;5.436;2022-11-02T10:18:25;11.75;;;3.05;;
73980;SDS011;62348;51.412;5.436;2022-11-02T10:20:57;12.38;;;2.80;;
73980;SDS011;62348;51.412;5.436;2022-11-02T10:23:26;15.75;;;3.03;;
73980;SDS011;62348;51.412;5.436;2022-11-02T10:25:56;21.52;;;3.25;;
73980;SDS011;62348;51.412;5.436;2022-11-02T10:28:25;13.52;;;3.33;;
73980;SDS011;62348;51.412;5.436;2022-11-02T10:30:54;20.55;;;3.42;;
73980;SDS011;62348;51.412;5.436;2022-11-02T10:33:26;14.00;;;3.13;;
73980;SDS011;62348;51.412;5.436;2022-11-02T10:39:03;17.27;;;3.25;;
73980;SDS011;62348;51.412;5.436;2022-11-02T10:41:44;16.02;;;2.97;;
73980;SDS011;62348;51.412;5.436;2022-11-02T10:44:29;12.25;;;2.70;;
73980;SDS011;62348;51.412;5.436;2022-11-02T10:47:17;12.45;;;3.05;;
73980;SDS011;62348;51.412;5.436;2022-11-02T10:52:18;16.70;;;2.97;;
73980;SDS011;62348;51.412;5.436;2022-11-02T10:54:43;12.60;;;2.30;;
73980;SDS011;62348;51.412;5.436;2022-11-02T10:57:10;14.88;;;4.40;;
73980;SDS011;62348;51.412;5.436;2022-11-02T10:59:37;14.18;;;2.50;;
73980;SDS011;62348;51.412;5.436;2022-11-02T11:04:34;12.88;;;2.45;;
73980;SDS011;62348;51.412;5.436;2022-11-02T11:07:12;11.52;;;2.30;;
73980;SDS011;62348;51.412;5.436;2022-11-02T11:09:45;8.90;;;2.60;;
73980;SDS011;62348;51.412;5.436;2022-11-02T11:12:15;17.10;;;2.78;;
73980;SDS011;62348;51.412;5.436;2022-11-02T11:14:51;12.70;;;2.60;;
73980;SDS011;62348;51.412;5.436;2022-11-02T11:17:25;22.05;;;3.38;;
73980;SDS011;62348;51.412;5.436;2022-11-02T11:19:54;13.70;;;3.33;;
73980;SDS011;62348;51.412;5.436;2022-11-02T11:33:28;15.05;;;2.85;;
73980;SDS011;62348;51.412;5.436;2022-11-02T11:35:57;8.60;;;2.88;;
73980;SDS011;62348;51.412;5.436;2022-11-02T11:38:23;14.60;;;3.42;;
73980;SDS011;62348;51.412;5.436;2022-11-02T11:41:00;11.85;;;2.65;;
73980;SDS011;62348;51.412;5.436;2022-11-02T11:43:30;12.68;;;2.97;;
73980;SDS011;62348;51.412;5.436;2022-11-02T11:46:02;16.02;;;3.22;;
73980;SDS011;62348;51.412;5.436;2022-11-02T11:51:02;12.98;;;2.47;;
73980;SDS011;62348;51.412;5.436;2022-11-02T11:53:28;13.90;;;3.22;;
73980;SDS011;62348;51.412;5.436;2022-11-02T11:55:57;16.23;;;3.65;;
73980;SDS011;62348;51.412;5.436;2022-11-02T11:58:31;13.38;;;3.10;;
73980;SDS011;62348;51.412;5.436;2022-11-02T12:03:25;19.27;;;3.33;;
73980;SDS011;62348;51.412;5.436;2022-11-02T12:06:12;17.02;;;4.05;;
73980;SDS011;62348;51.412;5.436;2022-11-02T12:27:51;16.27;;;3.50;;
73980;SDS011;62348;51.412;5.436;2022-11-02T12:36:18;16.60;;;3.20;;
73980;SDS011;62348;51.412;5.436;2022-11-02T12:44:21;11.30;;;3.13;;
73980;SDS011;62348;51.412;5.436;2022-11-02T12:52:37;14.15;;;3.25;;
73980;SDS011;62348;51.412;5.436;2022-11-02T12:55:16;12.00;;;2.78;;
73980;SDS011;62348;51.412;5.436;2022-11-02T12:57:45;12.30;;;2.90;;
73980;SDS011;62348;51.412;5.436;2022-11-02T13:00:17;15.15;;;3.30;;
73980;SDS011;62348;51.412;5.436;2022-11-02T13:05:42;19.15;;;3.65;;
73980;SDS011;62348;51.412;5.436;2022-11-02T13:08:18;12.25;;;3.22;;
73980;SDS011;62348;51.412;5.436;2022-11-02T13:10:53;18.27;;;3.38;;
73980;SDS011;62348;51.412;5.436;2022-11-02T13:13:41;13.02;;;2.92;;
73980;SDS011;62348;51.412;5.436;2022-11-02T13:16:10;13.10;;;2.92;;
73980;SDS011;62348;51.412;5.436;2022-11-02T13:18:51;11.27;;;2.65;;
73980;SDS011;62348;51.412;5.436;2022-11-02T13:21:26;13.13;;;3.10;;
73980;SDS011;62348;51.412;5.436;2022-11-02T13:23:59;13.38;;;2.42;;
73980;SDS011;62348;51.412;5.436;2022-11-02T13:29:06;10.32;;;2.22;;
73980;SDS011;62348;51.412;5.436;2022-11-02T13:31:46;9.63;;;2.08;;
73980;SDS011;62348;51.412;5.436;2022-11-02T13:34:30;10.90;;;2.60;;
73980;SDS011;62348;51.412;5.436;2022-11-02T13:37:02;11.77;;;2.78;;
73980;SDS011;62348;51.412;5.436;2022-11-02T13:39:34;10.30;;;2.38;;
73980;SDS011;62348;51.412;5.436;2022-11-02T13:42:09;11.85;;;2.47;;
73980;SDS011;62348;51.412;5.436;2022-11-02T13:45:04;12.38;;;3.17;;
73980;SDS011;62348;51.412;5.436;2022-11-02T13:50:41;8.85;;;2.33;;
73980;SDS011;62348;51.412;5.436;2022-11-02T13:53:17;7.45;;;2.33;;
73980;SDS011;62348;51.412;5.436;2022-11-02T13:55:50;18.48;;;3.15;;
73980;SDS011;62348;51.412;5.436;2022-11-02T13:58:20;13.85;;;2.80;;
73980;SDS011;62348;51.412;5.436;2022-11-02T14:00:49;13.57;;;3.63;;
73980;SDS011;62348;51.412;5.436;2022-11-02T14:03:22;13.50;;;3.15;;
73980;SDS011;62348;51.412;5.436;2022-11-02T14:06:09;15.23;;;2.83;;
73980;SDS011;62348;51.412;5.436;2022-11-02T14:08:41;12.32;;;2.67;;
73980;SDS011;62348;51.412;5.436;2022-11-02T14:14:22;12.80;;;4.20;;
73980;SDS011;62348;51.412;5.436;2022-11-02T14:49:16;13.63;;;2.88;;
73980;SDS011;62348;51.412;5.436;2022-11-02T14:51:53;12.32;;;2.40;;
73980;SDS011;62348;51.412;5.436;2022-11-02T14:54:27;15.18;;;2.75;;
73980;SDS011;62348;51.412;5.436;2022-11-02T14:57:06;13.23;;;3.00;;
73980;SDS011;62348;51.412;5.436;2022-11-02T14:59:46;17.80;;;3.97;;
73980;SDS011;62348;51.412;5.436;2022-11-02T15:02:18;14.02;;;3.30;;
73980;SDS011;62348;51.412;5.436;2022-11-02T15:04:45;10.73;;;2.58;;
73980;SDS011;62348;51.412;5.436;2022-11-02T15:07:17;17.75;;;3.35;;
73980;SDS011;62348;51.412;5.436;2022-11-02T15:10:33;8.50;;;2.83;;
73980;SDS011;62348;51.412;5.436;2022-11-02T15:15:43;15.25;;;2.90;;
73980;SDS011;62348;51.412;5.436;2022-11-02T15:23:46;14.93;;;2.10;;
73980;SDS011;62348;51.412;5.436;2022-11-02T15:26:46;10.18;;;2.20;;
73980;SDS011;62348;51.412;5.436;2022-11-02T15:31:52;12.63;;;2.08;;
73980;SDS011;62348;51.412;5.436;2022-11-02T15:34:19;13.27;;;2.30;;
73980;SDS011;62348;51.412;5.436;2022-11-02T15:36:53;7.55;;;2.30;;
73980;SDS011;62348;51.412;5.436;2022-11-02T15:39:20;15.45;;;2.35;;
73980;SDS011;62348;51.412;5.436;2022-11-02T15:55:39;11.88;;;2.25;;
73980;SDS011;62348;51.412;5.436;2022-11-02T16:00:32;8.93;;;2.57;;
73980;SDS011;62348;51.412;5.436;2022-11-02T16:03:01;11.00;;;2.70;;
73980;SDS011;62348;51.412;5.436;2022-11-02T16:05:32;12.65;;;2.83;;
73980;SDS011;62348;51.412;5.436;2022-11-02T16:08:04;15.48;;;2.90;;
73980;SDS011;62348;51.412;5.436;2022-11-02T16:10:45;8.77;;;2.42;;
73980;SDS011;62348;51.412;5.436;2022-11-02T16:13:13;9.13;;;2.28;;
73980;SDS011;62348;51.412;5.436;2022-11-02T16:15:41;11.90;;;3.35;;
73980;SDS011;62348;51.412;5.436;2022-11-02T16:21:01;12.63;;;2.58;;
73980;SDS011;62348;51.412;5.436;2022-11-02T16:23:29;8.52;;;2.47;;
73980;SDS011;62348;51.412;5.436;2022-11-02T16:25:56;11.38;;;3.13;;
73980;SDS011;62348;51.412;5.436;2022-11-02T16:36:06;14.07;;;3.85;;
73980;SDS011;62348;51.412;5.436;2022-11-02T16:38:35;12.55;;;2.78;;
73980;SDS011;62348;51.412;5.436;2022-11-02T16:41:02;14.10;;;3.35;;
73980;SDS011;62348;51.412;5.436;2022-11-02T16:43:31;11.68;;;2.50;;
73980;SDS011;62348;51.412;5.436;2022-11-02T16:46:00;7.75;;;2.50;;
73980;SDS011;62348;51.412;5.436;2022-11-02T16:48:28;10.32;;;2.75;;
73980;SDS011;62348;51.412;5.436;2022-11-02T16:51:04;13.05;;;2.55;;
73980;SDS011;62348;51.412;5.436;2022-11-02T16:53:42;9.95;;;2.70;;
73980;SDS011;62348;51.412;5.436;2022-11-02T16:58:57;11.10;;;3.17;;
73980;SDS011;62348;51.412;5.436;2022-11-02T17:01:25;10.65;;;2.63;;
73980;SDS011;62348;51.412;5.436;2022-11-02T17:03:55;10.73;;;2.60;;
73980;SDS011;62348;51.412;5.436;2022-11-02T17:06:20;12.35;;;2.67;;
73980;SDS011;62348;51.412;5.436;2022-11-02T17:08:50;12.27;;;2.33;;
73980;SDS011;62348;51.412;5.436;2022-11-02T17:11:18;8.77;;;3.10;;
73980;SDS011;62348;51.412;5.436;2022-11-02T17:13:54;15.70;;;6.45;;
73980;SDS011;62348;51.412;5.436;2022-11-02T17:16:24;21.83;;;11.88;;
73980;SDS011;62348;51.412;5.436;2022-11-02T17:18:49;25.63;;;11.52;;
73980;SDS011;62348;51.412;5.436;2022-11-02T17:21:18;17.00;;;8.88;;
73980;SDS011;62348;51.412;5.436;2022-11-02T17:23:48;12.98;;;5.30;;
73980;SDS011;62348;51.412;5.436;2022-11-02T17:26:23;10.68;;;4.30;;
73980;SDS011;62348;51.412;5.436;2022-11-02T17:31:27;12.85;;;3.60;;
73980;SDS011;62348;51.412;5.436;2022-11-02T17:33:59;11.75;;;3.40;;
73980;SDS011;62348;51.412;5.436;2022-11-02T17:36:31;11.00;;;3.65;;
73980;SDS011;62348;51.412;5.436;2022-11-02T17:39:07;16.27;;;4.03;;
73980;SDS011;62348;51.412;5.436;2022-11-02T17:41:35;11.48;;;2.80;;
73980;SDS011;62348;51.412;5.436;2022-11-02T17:44:19;15.13;;;4.07;;
73980;SDS011;62348;51.412;5.436;2022-11-02T17:46:44;10.23;;;3.95;;
73980;SDS011;62348;51.412;5.436;2022-11-02T17:49:10;13.05;;;3.00;;
73980;SDS011;62348;51.412;5.436;2022-11-02T17:51:35;14.30;;;3.50;;
73980;SDS011;62348;51.412;5.436;2022-11-02T17:54:02;10.88;;;3.83;;
73980;SDS011;62348;51.412;5.436;2022-11-02T17:56:28;10.98;;;3.65;;
73980;SDS011;62348;51.412;5.436;2022-11-02T17:58:53;16.27;;;4.07;;
73980;SDS011;62348;51.412;5.436;2022-11-02T18:01:19;11.85;;;3.53;;